Time;durP1;ratioP1;P1;durP2;ratioP2;P2;SDS_P1;SDS_P2;PMS_P1;PMS_P2;Temp;Humidity;BMP_temperature;BMP_pressure;BME280_temperature;BME280_humidity;BME280_pressure;Samples;Min_cycle;Max_cycle;Signal;HPM_P1;HPM_P2
2021/11/27 00:01:01;;;;;;;4.17;3.80;;;;;;;12.81;53.47;98137.40;1745924;81;21716;-60
2021/11/27 00:03:28;;;;;;;4.30;3.90;;;;;;;12.81;53.47;98148.06;1750375;81;21029;-60
2021/11/27 00:05:56;;;;;;;3.83;3.47;;;;;;;12.81;53.49;98129.41;1748949;81;21107;-61
2021/11/27 00:08:24;;;;;;;4.22;3.83;;;;;;;12.81;53.49;98123.27;1761601;81;21045;-60
2021/11/27 00:10:53;;;;;;;4.37;3.98;;;;;;;12.80;53.50;98127.77;1756825;81;21563;-60
2021/11/27 00:13:20;;;;;;;4.42;4.03;;;;;;;12.79;53.53;98116.83;1753575;81;21520;-60
2021/11/27 00:15:48;;;;;;;4.95;4.33;;;;;;;12.78;53.56;98120.51;1766434;80;21069;-59
2021/11/27 00:18:16;;;;;;;4.10;3.72;;;;;;;12.78;53.56;98118.65;1770141;80;21118;-60
2021/11/27 00:20:48;;;;;;;4.60;4.05;;;;;;;12.78;53.55;98113.84;1770959;80;21041;-60
2021/11/27 00:23:15;;;;;;;4.40;3.92;;;;;;;12.76;53.59;98113.25;1766826;80;21061;-60
2021/11/27 00:25:42;;;;;;;5.30;4.30;;;;;;;12.76;53.59;98096.74;1762640;80;21096;-59
2021/11/27 00:28:09;;;;;;;4.22;3.83;;;;;;;12.75;53.61;98111.12;1760158;80;21104;-60
2021/11/27 00:30:38;;;;;;;4.05;3.65;;;;;;;12.76;53.60;98099.41;1773872;80;20989;-59
2021/11/27 00:33:05;;;;;;;4.70;4.12;;;;;;;12.75;53.63;98086.33;1784052;80;21044;-59
2021/11/27 00:35:32;;;;;;;4.78;3.72;;;;;;;12.74;53.65;98094.02;1779093;80;21024;-61
2021/11/27 00:37:59;;;;;;;4.97;4.42;;;;;;;12.74;53.63;98078.03;1759246;81;21662;-59
2021/11/27 00:40:26;;;;;;;4.70;4.03;;;;;;;12.73;53.65;98073.75;1756664;80;21541;-59
2021/11/27 00:42:54;;;;;;;4.67;3.85;;;;;;;12.73;53.66;98045.25;1768509;81;21758;-58
2021/11/27 00:45:21;;;;;;;5.15;4.60;;;;;;;12.73;53.69;98061.23;1754458;81;21624;-59
2021/11/27 00:47:50;;;;;;;4.40;3.92;;;;;;;12.72;53.68;98034.81;1762892;81;21046;-60
2021/11/27 00:50:22;;;;;;;5.58;4.47;;;;;;;12.72;53.70;98032.95;1759082;81;21078;-59
2021/11/27 00:52:49;;;;;;;5.53;4.10;;;;;;;12.71;53.71;98019.35;1749581;80;21046;-59
2021/11/27 00:55:16;;;;;;;4.55;4.00;;;;;;;12.70;53.72;98012.91;1758094;80;21076;-60
2021/11/27 00:57:43;;;;;;;4.58;3.92;;;;;;;12.69;53.71;98000.11;1756527;81;20982;-60
2021/11/27 01:00:14;;;;;;;4.78;4.33;;;;;;;12.70;53.73;98000.92;1780318;79;21085;-60
2021/11/27 01:02:43;;;;;;;4.03;3.62;;;;;;;12.69;53.77;97999.28;1787671;79;21021;-60
2021/11/27 01:05:12;;;;;;;4.60;4.20;;;;;;;12.69;53.78;97997.45;1770728;79;21543;-60
2021/11/27 01:07:39;;;;;;;5.00;4.30;;;;;;;12.69;53.79;97991.28;1790600;79;21981;-60
2021/11/27 01:10:08;;;;;;;5.28;4.50;;;;;;;12.68;53.78;97971.02;1779131;79;21556;-59
2021/11/27 01:12:37;;;;;;;4.30;3.90;;;;;;;12.67;53.80;97966.22;1784723;79;21019;-59
2021/11/27 01:15:05;;;;;;;4.35;3.95;;;;;;;12.67;53.80;97966.72;1796170;79;21102;-60
2021/11/27 01:17:32;;;;;;;5.12;4.47;;;;;;;12.66;53.82;97945.94;1760963;80;21021;-60
2021/11/27 01:19:59;;;;;;;5.17;4.25;;;;;;;12.67;53.82;97943.58;1772949;80;21150;-60
2021/11/27 01:22:26;;;;;;;4.72;4.33;;;;;;;12.66;53.86;97961.11;1764208;80;21037;-60
2021/11/27 01:24:53;;;;;;;4.53;4.12;;;;;;;12.64;53.86;97936.02;1791592;80;21050;-59
2021/11/27 01:27:19;;;;;;;4.10;3.70;;;;;;;12.65;53.87;97948.32;1774500;80;21041;-60
2021/11/27 01:29:45;;;;;;;4.50;4.10;;;;;;;12.66;53.88;97930.48;1761489;80;21084;-59
2021/11/27 01:32:14;;;;;;;4.40;4.00;;;;;;;12.65;53.89;97944.33;1767533;80;21936;-59
2021/11/27 01:34:41;;;;;;;4.75;4.05;;;;;;;12.64;53.89;97929.89;1763070;80;21006;-60
2021/11/27 01:37:08;;;;;;;4.70;4.22;;;;;;;12.63;53.89;97915.73;1765308;80;21580;-59
2021/11/27 01:39:36;;;;;;;4.92;4.42;;;;;;;12.64;53.89;97917.38;1787958;80;21465;-60
2021/11/27 01:42:04;;;;;;;5.17;4.67;;;;;;;12.64;53.91;97912.58;1768703;80;21049;-60
2021/11/27 01:44:31;;;;;;;4.83;4.42;;;;;;;12.63;53.94;97907.74;1768608;80;21125;-60
2021/11/27 01:46:58;;;;;;;5.53;4.55;;;;;;;12.62;53.91;97905.33;1773221;80;21108;-59
2021/11/27 01:49:26;;;;;;;5.50;4.50;;;;;;;12.61;53.93;97905.83;1761995;80;21018;-60
2021/11/27 01:51:53;;;;;;;5.25;4.50;;;;;;;12.62;53.96;97886.16;1762573;80;21066;-59
2021/11/27 01:54:20;;;;;;;5.10;4.60;;;;;;;12.61;53.96;97887.18;1785177;78;21068;-59
2021/11/27 01:56:56;;;;;;;5.65;5.05;;;;;;;12.61;53.97;97889.84;1767737;80;21401;-59
2021/11/27 01:59:26;;;;;;;5.00;4.50;;;;;;;12.61;53.97;97874.39;1769904;80;21013;-59
2021/11/27 02:01:53;;;;;;;5.67;4.92;;;;;;;12.59;53.98;97870.12;1774969;80;21014;-60
2021/11/27 02:04:22;;;;;;;4.65;4.22;;;;;;;12.59;54.00;97872.78;1783543;79;21085;-60
2021/11/27 02:06:49;;;;;;;4.85;4.30;;;;;;;12.58;54.02;97857.83;1770105;80;21069;-58
2021/11/27 02:09:20;;;;;;;4.15;3.75;;;;;;;12.59;54.00;97853.30;1782038;80;21090;-59
2021/11/27 02:11:47;;;;;;;5.58;4.60;;;;;;;12.59;54.04;97866.63;1779605;80;21088;-58
2021/11/27 02:14:14;;;;;;;4.70;4.22;;;;;;;12.58;54.05;97859.16;1765114;80;21151;-60
2021/11/27 02:16:45;;;;;;;5.78;4.83;;;;;;;12.58;54.03;97859.69;1765156;79;21076;-60
2021/11/27 02:19:11;;;;;;;5.05;4.55;;;;;;;12.57;54.06;97850.89;1792320;79;21033;-59
2021/11/27 02:21:40;;;;;;;5.65;5.08;;;;;;;12.57;54.06;97846.89;1772856;80;21196;-60
2021/11/27 02:24:07;;;;;;;5.00;4.50;;;;;;;12.56;54.08;97843.92;1782925;80;21061;-59
2021/11/27 02:26:35;;;;;;;5.62;5.00;;;;;;;12.57;54.08;97830.08;1762385;80;21041;-58
2021/11/27 02:29:11;;;;;;;5.65;5.05;;;;;;;12.56;54.08;97827.94;1765813;80;21553;-59
2021/11/27 02:31:38;;;;;;;6.85;4.70;;;;;;;12.56;54.10;97833.80;1770824;80;21048;-59
2021/11/27 02:34:05;;;;;;;5.47;4.50;;;;;;;12.55;54.12;97833.48;1762665;80;21139;-59
2021/11/27 02:36:33;;;;;;;5.25;4.75;;;;;;;12.55;54.12;97808.98;1772234;80;21490;-59
2021/11/27 02:39:00;;;;;;;5.00;4.50;;;;;;;12.55;54.13;97817.51;1766162;80;21056;-59
2021/11/27 02:41:27;;;;;;;5.10;4.60;;;;;;;12.55;54.13;97809.52;1769209;80;21046;-60
2021/11/27 02:43:55;;;;;;;5.50;4.83;;;;;;;12.53;54.16;97811.08;1787557;79;21023;-60
2021/11/27 02:46:23;;;;;;;5.78;5.00;;;;;;;12.53;54.14;97792.95;1776278;80;21132;-60
2021/11/27 02:48:50;;;;;;;4.90;4.40;;;;;;;12.53;54.17;97803.61;1769912;80;21053;-59
2021/11/27 02:51:17;;;;;;;5.97;5.15;;;;;;;12.53;54.18;97790.30;1782125;79;21014;-60
2021/11/27 02:53:43;;;;;;;4.97;4.47;;;;;;;12.52;54.18;97785.49;1781595;79;21113;-60
2021/11/27 02:56:10;;;;;;;5.25;4.72;;;;;;;12.53;54.20;97786.30;1806291;79;21033;-59
2021/11/27 02:58:37;;;;;;;5.20;4.33;;;;;;;12.53;54.19;97768.98;1772333;80;21194;-60
2021/11/27 03:01:05;;;;;;;4.90;4.40;;;;;;;12.53;54.23;97770.31;1767734;80;21187;-60
2021/11/27 03:03:35;;;;;;;4.92;4.42;;;;;;;12.53;54.21;97767.66;1766168;80;21007;-60
2021/11/27 03:06:03;;;;;;;5.53;4.90;;;;;;;12.53;54.23;97754.34;1765013;80;21076;-59
2021/11/27 03:08:29;;;;;;;4.62;4.15;;;;;;;12.53;54.20;97755.67;1763152;80;21077;-59
2021/11/27 03:10:57;;;;;;;4.58;4.17;;;;;;;12.53;54.23;97758.33;1766986;80;21891;-59
2021/11/27 03:13:32;;;;;;;5.12;4.62;;;;;;;12.52;54.24;97744.74;1764336;80;21042;-59
2021/11/27 03:15:58;;;;;;;4.12;3.72;;;;;;;12.52;54.25;97760.19;1763635;80;21022;-59
2021/11/27 03:18:26;;;;;;;4.75;4.28;;;;;;;12.52;54.26;97744.74;1772923;80;21045;-59
2021/11/27 03:20:53;;;;;;;4.87;4.40;;;;;;;12.51;54.26;97749.76;1765891;80;20989;-59
2021/11/27 03:23:21;;;;;;;5.05;4.55;;;;;;;12.51;54.28;97743.10;1755371;80;21153;-60
2021/11/27 03:25:50;;;;;;;4.28;3.87;;;;;;;12.51;54.28;97729.78;1767373;80;21038;-60
2021/11/27 03:28:16;;;;;;;4.65;4.00;;;;;;;12.51;54.29;97735.11;1760703;80;21081;-60
2021/11/27 03:30:43;;;;;;;5.10;4.60;;;;;;;12.51;54.29;97736.44;1775520;80;21014;-60
2021/11/27 03:33:10;;;;;;;5.05;4.55;;;;;;;12.50;54.32;97720.99;1778758;80;21071;-58
2021/11/27 03:35:36;;;;;;;4.80;4.40;;;;;;;12.50;54.31;97728.18;1773862;80;21144;-59
2021/11/27 03:38:03;;;;;;;5.10;4.45;;;;;;;12.51;54.33;97733.25;1771538;80;21018;-59
2021/11/27 03:40:30;;;;;;;4.92;4.42;;;;;;;12.51;54.34;97738.58;1772835;80;21672;-59
2021/11/27 03:42:57;;;;;;;4.92;4.03;;;;;;;12.50;54.35;97728.98;1762234;80;21565;-59
2021/11/27 03:45:24;;;;;;;5.53;4.90;;;;;;;12.50;54.35;97727.65;1769853;80;21484;-59
2021/11/27 03:47:59;;;;;;;4.35;3.92;;;;;;;12.50;54.35;97713.00;1762097;80;21568;-59
2021/11/27 03:50:36;;;;;;;4.60;4.17;;;;;;;12.51;54.36;97723.13;1756993;80;21043;-60
2021/11/27 03:53:04;;;;;;;4.53;4.03;;;;;;;12.50;54.37;97726.32;1752443;80;21038;-59
2021/11/27 03:55:32;;;;;;;4.15;3.50;;;;;;;12.41;54.37;97701.06;1723102;80;21132;-61
2021/11/27 03:57:58;;;;;;;4.28;3.87;;;;;;;12.50;54.40;97718.86;1739324;82;21014;-59
2021/11/27 04:00:25;;;;;;;3.90;3.58;;;;;;;12.50;54.41;97721.52;1731328;82;21050;-59
2021/11/27 04:02:54;;;;;;;4.33;3.77;;;;;;;12.50;54.41;97706.34;1726185;80;21546;-59
2021/11/27 04:05:22;;;;;;;4.78;4.28;;;;;;;12.50;54.43;97713.00;1733568;80;21521;-60
2021/11/27 04:07:53;;;;;;;3.83;3.47;;;;;;;12.50;54.44;97713.53;1747106;82;21104;-60
2021/11/27 04:10:19;;;;;;;3.83;3.42;;;;;;;12.50;54.44;97713.00;1737932;80;21167;-60
2021/11/27 04:12:48;;;;;;;3.72;3.30;;;;;;;12.50;54.43;97704.21;1701300;82;21098;-60
2021/11/27 04:15:15;;;;;;;4.40;4.00;;;;;;;12.50;54.48;97701.55;1736709;80;21020;-60
2021/11/27 04:17:42;;;;;;;3.70;3.40;;;;;;;12.49;54.46;97690.06;1726789;80;21117;-59
2021/11/27 04:20:10;;;;;;;4.15;3.75;;;;;;;12.51;54.47;97696.50;1728942;80;21021;-60
2021/11/27 04:22:37;;;;;;;3.65;3.35;;;;;;;12.51;54.48;97705.81;1728673;80;21042;-60
2021/11/27 04:25:07;;;;;;;4.20;3.55;;;;;;;12.51;54.48;97704.48;1731560;80;21081;-60
2021/11/27 04:27:34;;;;;;;3.90;3.60;;;;;;;12.52;54.50;97710.12;1725776;80;21085;-59
2021/11/27 04:30:08;;;;;;;4.42;3.60;;;;;;;12.52;54.48;97700.80;1716302;82;21122;-60
2021/11/27 04:32:37;;;;;;;3.87;3.40;;;;;;;12.52;54.49;97704.27;1767540;80;21073;-60
2021/11/27 04:35:06;;;;;;;3.40;3.02;;;;;;;12.53;54.52;97705.06;1752105;81;21088;-60
2021/11/27 04:37:33;;;;;;;3.75;3.37;;;;;;;12.52;54.49;97693.61;1745222;79;21148;-59
2021/11/27 04:39:59;;;;;;;4.40;3.67;;;;;;;12.53;54.49;97713.86;1756575;80;21056;-59
2021/11/27 04:42:26;;;;;;;3.92;3.50;;;;;;;12.53;54.50;97713.86;1742489;79;21061;-60
2021/11/27 04:44:53;;;;;;;3.40;3.10;;;;;;;12.55;54.53;97717.62;1751159;79;21018;-60
2021/11/27 04:47:19;;;;;;;3.27;2.98;;;;;;;12.56;54.54;97716.60;1756317;79;21581;-60
2021/11/27 04:49:46;;;;;;;3.50;3.20;;;;;;;12.55;54.54;97721.09;1716962;81;23057;-60
2021/11/27 04:52:13;;;;;;;3.70;3.30;;;;;;;12.56;54.54;97716.08;1772795;79;21491;-59
2021/11/27 04:54:40;;;;;;;3.80;3.40;;;;;;;12.56;54.54;97722.73;1762299;80;21073;-60
2021/11/27 04:57:06;;;;;;;3.17;2.87;;;;;;;12.58;54.54;97725.17;1766800;80;20986;-59
2021/11/27 04:59:33;;;;;;;3.42;2.90;;;;;;;12.57;54.54;97715.05;1779601;80;20986;-59
2021/11/27 05:02:01;;;;;;;3.33;3.02;;;;;;;12.58;54.53;97712.66;1755166;80;21064;-59
2021/11/27 05:04:30;;;;;;;3.22;2.90;;;;;;;12.59;54.54;97712.13;1755109;80;21025;-59
2021/11/27 05:08:05;;;;;;;2.67;2.47;;;;;;;12.64;54.53;97709.59;1831510;76;28527;-59
2021/11/27 05:10:32;;;;;;;3.02;2.72;;;;;;;12.60;54.54;97711.10;1812135;78;21056;-59
2021/11/27 05:12:59;;;;;;;2.60;2.40;;;;;;;12.61;54.55;97712.70;1801532;77;21098;-60
2021/11/27 05:15:26;;;;;;;3.67;3.22;;;;;;;12.63;54.52;97718.61;1813233;78;20965;-60
2021/11/27 05:17:54;;;;;;;3.15;2.85;;;;;;;12.63;54.54;97715.95;1805856;78;21993;-58
2021/11/27 05:20:25;;;;;;;3.52;3.22;;;;;;;12.63;54.55;97709.29;1800514;77;21075;-60
2021/11/27 05:22:52;;;;;;;2.87;2.58;;;;;;;12.63;54.55;97715.95;1823921;77;20992;-59
2021/11/27 05:25:19;;;;;;;3.20;2.90;;;;;;;12.64;54.56;97715.45;1820559;78;22166;-59
2021/11/27 05:28:04;;;;;;;2.70;2.50;;;;;;;12.64;54.56;97712.26;1810692;78;21012;-59
2021/11/27 05:30:36;;;;;;;2.95;2.65;;;;;;;12.65;54.57;97725.88;1802506;77;21494;-59
2021/11/27 05:35:33;;;;;;;2.95;2.67;;;;;;;12.66;54.60;97727.48;1798133;77;21475;-59
2021/11/27 05:38:02;;;;;;;2.98;2.70;;;;;;;12.67;54.60;97729.63;1801092;78;21833;-59
2021/11/27 05:40:28;;;;;;;2.95;2.72;;;;;;;12.67;54.60;97726.46;1812728;77;20966;-60
2021/11/27 05:42:55;;;;;;;3.08;2.77;;;;;;;12.67;54.60;97733.62;1814888;77;21072;-60
2021/11/27 05:45:27;;;;;;;2.85;2.52;;;;;;;12.68;54.64;97733.39;1801064;78;21064;-59
2021/11/27 05:47:52;;;;;;;2.62;2.42;;;;;;;12.69;54.63;97737.70;1818036;78;21034;-60
2021/11/27 05:50:20;;;;;;;3.35;2.75;;;;;;;12.70;54.63;97736.64;1809337;77;21070;-59
2021/11/27 05:52:47;;;;;;;3.10;2.80;;;;;;;12.72;54.61;97745.73;1816698;78;21067;-59
2021/11/27 05:55:14;;;;;;;4.85;3.08;;;;;;;12.73;54.61;97736.72;1811610;78;21400;-60
2021/11/27 05:57:40;;;;;;;3.20;2.70;;;;;;;12.73;54.62;97736.72;1819876;78;21033;-58
2021/11/27 06:00:09;;;;;;;3.37;3.08;;;;;;;12.74;54.63;97733.80;1821280;78;21071;-59
2021/11/27 06:02:41;;;;;;;2.87;2.67;;;;;;;12.75;54.61;97737.30;1811200;77;21466;-59
2021/11/27 06:05:09;;;;;;;2.77;2.50;;;;;;;12.76;54.63;97737.04;1810281;78;21005;-60
2021/11/27 06:07:36;;;;;;;3.05;2.35;;;;;;;12.76;54.62;97737.04;1806424;77;21599;-60
2021/11/27 06:10:04;;;;;;;2.83;2.60;;;;;;;12.78;54.60;97743.47;1798531;79;21026;-60
2021/11/27 06:12:31;;;;;;;2.90;2.60;;;;;;;12.79;54.61;97743.78;1771618;79;21268;-61
2021/11/27 06:14:58;;;;;;;3.40;3.02;;;;;;;12.78;54.61;97748.28;1802914;79;21107;-59
2021/11/27 06:17:24;;;;;;;3.70;2.80;;;;;;;12.82;54.62;97754.48;1787437;79;21037;-60
2021/11/27 06:19:52;;;;;;;2.98;2.58;;;;;;;12.82;54.61;97750.48;1801420;77;21359;-60
2021/11/27 06:22:21;;;;;;;2.62;2.42;;;;;;;12.84;54.62;97756.40;1786672;79;21517;-61
2021/11/27 06:24:47;;;;;;;3.33;3.00;;;;;;;12.84;54.61;97754.54;1802976;78;21009;-59
2021/11/27 06:27:14;;;;;;;2.98;2.67;;;;;;;12.86;54.61;97756.98;1800820;78;21127;-60
2021/11/27 06:29:41;;;;;;;3.47;3.17;;;;;;;12.86;54.62;97755.11;1799563;78;21036;-60
2021/11/27 06:32:09;;;;;;;3.85;2.75;;;;;;;12.88;54.62;97764.22;1790638;79;20994;-61
2021/11/27 06:34:36;;;;;;;3.00;2.70;;;;;;;12.89;54.62;97771.98;1797110;79;21440;-60
2021/11/27 06:37:03;;;;;;;3.12;2.83;;;;;;;12.90;54.61;97760.80;1798980;78;21525;-60
2021/11/27 06:39:30;;;;;;;3.10;2.80;;;;;;;12.90;54.65;97750.14;1792874;78;21483;-59
2021/11/27 06:41:57;;;;;;;3.20;2.90;;;;;;;12.91;54.63;97757.91;1804324;79;21463;-61
2021/11/27 06:44:25;;;;;;;3.27;2.98;;;;;;;12.93;54.66;97753.69;1809024;78;21036;-60
2021/11/27 06:46:52;;;;;;;3.20;2.90;;;;;;;12.94;54.66;97760.63;1814320;77;21065;-60
2021/11/27 06:49:18;;;;;;;3.20;2.90;;;;;;;12.94;54.67;97757.45;1791461;79;21080;-59
2021/11/27 06:51:45;;;;;;;3.25;2.95;;;;;;;12.94;54.67;97761.45;1793570;79;21217;-59
2021/11/27 06:54:11;;;;;;;3.72;3.00;;;;;;;12.96;54.67;97765.20;1809402;79;21004;-60
2021/11/27 06:56:37;;;;;;;2.90;2.60;;;;;;;12.97;54.69;97756.98;1797885;78;21011;-60
2021/11/27 06:59:04;;;;;;;3.72;3.10;;;;;;;12.98;54.70;97763.14;1805992;77;21036;-59
2021/11/27 07:01:33;;;;;;;3.55;3.05;;;;;;;12.99;54.70;97762.88;1794890;79;21557;-60
2021/11/27 07:04:19;;;;;;;3.37;3.08;;;;;;;13.00;54.73;97770.38;1793395;79;21434;-59
2021/11/27 07:07:04;;;;;;;3.42;3.12;;;;;;;13.00;54.73;97782.37;1808006;77;21032;-61
2021/11/27 07:09:47;;;;;;;;;;;;;;;13.01;54.77;97773.32;1813215;78;21061;-59
2021/11/27 07:12:33;;;;;;;3.95;3.17;;;;;;;13.02;54.80;97772.79;1811560;78;20132;-60
2021/11/27 07:15:02;;;;;;;3.50;3.08;;;;;;;12.98;54.89;97785.27;1811290;78;21017;-59
2021/11/27 07:17:33;;;;;;;3.30;3.00;;;;;;;12.99;54.90;97779.41;1815155;78;21139;-60
2021/11/27 07:20:01;;;;;;;3.37;3.08;;;;;;;13.01;54.94;97780.52;1817279;77;21493;-59
2021/11/27 07:22:27;;;;;;;4.03;3.10;;;;;;;13.01;54.94;97777.84;1811994;78;21047;-59
2021/11/27 07:24:54;;;;;;;4.30;3.40;;;;;;;13.03;54.94;97785.09;1801998;78;21489;-59
2021/11/27 07:27:22;;;;;;;4.40;3.98;;;;;;;13.04;54.95;97782.20;1805534;78;21056;-59
2021/11/27 07:29:49;;;;;;;3.65;3.33;;;;;;;13.05;54.94;97773.14;1818486;78;21050;-60
2021/11/27 07:32:15;;;;;;;4.25;3.50;;;;;;;13.08;54.93;97770.02;1815576;78;21069;-60
2021/11/27 07:34:41;;;;;;;4.72;3.52;;;;;;;13.10;54.92;97777.80;1818048;77;21552;-60
2021/11/27 07:37:08;;;;;;;4.17;3.65;;;;;;;13.11;54.94;97778.88;1806451;77;21453;-60
2021/11/27 07:39:36;;;;;;;4.25;3.70;;;;;;;13.13;54.93;97780.81;1804848;78;21166;-60
2021/11/27 07:42:04;;;;;;;4.45;3.58;;;;;;;13.14;54.91;97777.09;1824321;77;21123;-59
2021/11/27 07:44:32;;;;;;;5.00;4.00;;;;;;;13.18;54.88;97785.44;1827947;77;21010;-60
2021/11/27 07:47:01;;;;;;;3.95;3.55;;;;;;;13.19;54.88;97785.71;1735948;78;21343;-61
2021/11/27 07:49:46;;;;;;;4.90;4.20;;;;;;;13.22;54.86;97803.12;1799046;77;21036;-59
2021/11/27 07:52:26;;;;;;;4.58;4.10;;;;;;;13.22;54.85;97793.78;1817442;78;21006;-59
2021/11/27 07:54:53;;;;;;;4.03;3.62;;;;;;;13.23;54.86;97791.39;1824089;78;21647;-59
2021/11/27 07:57:21;;;;;;;4.47;4.08;;;;;;;13.25;54.86;97801.30;1811125;78;20997;-60
2021/11/27 07:59:48;;;;;;;4.90;4.12;;;;;;;13.26;54.85;97804.27;1813777;78;21572;-60
2021/11/27 08:02:14;;;;;;;5.90;4.25;;;;;;;13.28;54.83;97804.84;1818122;78;21620;-60
2021/11/27 08:04:41;;;;;;;4.53;3.87;;;;;;;13.29;54.83;97802.45;1798695;78;21614;-60
2021/11/27 08:07:10;;;;;;;7.87;3.92;;;;;;;13.30;54.80;97802.26;1803253;78;21100;-60
2021/11/27 08:09:37;;;;;;;4.55;4.15;;;;;;;13.32;54.79;97797.50;1806206;79;21559;-60
2021/11/27 08:12:05;;;;;;;4.47;4.08;;;;;;;13.34;54.72;97795.41;1794621;79;21055;-60
2021/11/27 08:14:32;;;;;;;4.42;3.98;;;;;;;13.35;54.71;97799.72;1793451;79;21216;-61
2021/11/27 08:17:00;;;;;;;5.12;4.58;;;;;;;13.39;54.66;97803.26;1799742;79;20982;-59
2021/11/27 08:19:28;;;;;;;4.53;4.10;;;;;;;13.40;54.64;97805.67;1803064;79;21171;-60
2021/11/27 08:21:55;;;;;;;4.12;3.83;;;;;;;13.43;54.62;97801.22;1802761;79;20983;-60
2021/11/27 08:24:21;;;;;;;4.50;4.10;;;;;;;13.45;54.58;97801.79;1778833;79;21017;-59
2021/11/27 08:26:48;;;;;;;5.22;4.25;;;;;;;13.47;54.52;97809.03;1793700;79;20998;-60
2021/11/27 08:29:14;;;;;;;5.22;4.40;;;;;;;13.50;54.44;97807.24;1782198;78;21028;-62
2021/11/27 08:31:43;;;;;;;4.95;4.45;;;;;;;13.54;54.41;97804.89;1805163;79;21116;-59
2021/11/27 08:34:09;;;;;;;4.78;4.37;;;;;;;13.57;54.37;97811.11;1805404;78;21041;-60
2021/11/27 08:36:37;;;;;;;6.20;4.97;;;;;;;13.60;54.35;97805.81;1739816;81;21077;-60
2021/11/27 08:39:04;;;;;;;4.97;4.47;;;;;;;13.63;54.30;97798.69;1775243;79;21030;-59
2021/11/27 08:41:30;;;;;;;4.75;4.33;;;;;;;13.69;54.25;97803.08;1741008;81;21047;-59
2021/11/27 08:43:57;;;;;;;5.08;4.37;;;;;;;13.72;54.20;97821.30;1733299;81;21896;-59
2021/11/27 08:46:23;;;;;;;4.92;4.42;;;;;;;13.75;54.13;97808.30;1735433;81;21588;-60
2021/11/27 08:48:50;;;;;;;5.55;4.95;;;;;;;13.80;54.07;97800.91;1735143;80;21522;-60
2021/11/27 08:51:17;;;;;;;4.65;4.22;;;;;;;13.84;54.03;97801.25;1758344;79;21562;-60
2021/11/27 08:53:45;;;;;;;5.08;4.58;;;;;;;13.88;53.97;97795.19;1756966;80;21004;-60
2021/11/27 08:56:11;;;;;;;5.03;4.62;;;;;;;13.92;53.94;97799.00;1757452;79;23268;-60
2021/11/27 08:58:39;;;;;;;5.42;4.83;;;;;;;13.96;53.90;97801.52;1734478;79;21591;-60
2021/11/27 09:01:07;;;;;;;5.28;4.78;;;;;;;14.00;53.89;97799.16;1757507;79;20990;-60
2021/11/27 09:03:34;;;;;;;5.15;4.62;;;;;;;14.04;53.89;97806.17;1754454;79;21077;-61
2021/11/27 09:06:01;;;;;;;5.83;4.95;;;;;;;14.07;53.83;97803.03;1750459;81;21067;-59
2021/11/27 09:08:28;;;;;;;6.05;5.28;;;;;;;14.11;53.76;97764.12;1753256;79;21147;-61
2021/11/27 09:10:55;;;;;;;6.72;6.12;;;;;;;14.14;53.89;97764.46;1743162;80;20987;-60
2021/11/27 09:13:22;;;;;;;8.73;6.65;;;;;;;14.19;54.01;97775.75;1754850;79;21577;-61
2021/11/27 09:15:48;;;;;;;9.50;7.58;;;;;;;14.24;54.03;97777.19;1741304;81;21539;-59
2021/11/27 09:18:14;;;;;;;8.55;7.67;;;;;;;14.27;54.09;97779.36;1751581;81;21574;-62
2021/11/27 09:20:42;;;;;;;9.15;8.25;;;;;;;14.31;54.10;97784.53;1756086;79;21144;-59
2021/11/27 09:23:08;;;;;;;9.18;7.45;;;;;;;14.34;54.10;97773.89;1762857;79;20992;-58
2021/11/27 09:25:35;;;;;;;11.22;8.70;;;;;;;14.39;54.14;97782.50;1742538;81;21047;-60
2021/11/27 09:28:02;;;;;;;10.30;9.08;;;;;;;14.43;54.16;97776.95;1750339;81;21046;-59
2021/11/27 09:30:30;;;;;;;10.70;9.60;;;;;;;14.46;54.21;97775.16;1749740;81;21550;-60
2021/11/27 09:32:56;;;;;;;11.25;9.80;;;;;;;14.50;54.15;97777.63;1751604;79;21853;-61
2021/11/27 09:35:24;;;;;;;10.63;9.50;;;;;;;14.54;54.22;97816.16;1755299;79;21043;-60
2021/11/27 09:37:51;;;;;;;11.57;10.03;;;;;;;14.58;53.96;97817.86;1754444;79;21141;-59
2021/11/27 09:40:17;;;;;;;11.40;9.45;;;;;;;14.61;53.84;97834.23;1737988;81;21045;-59
2021/11/27 09:42:45;;;;;;;10.93;9.83;;;;;;;14.64;53.72;97828.42;1759649;79;21034;-59
2021/11/27 09:45:12;;;;;;;10.63;9.55;;;;;;;14.67;53.67;97831.92;1748600;80;21140;-59
2021/11/27 09:47:40;;;;;;;9.70;8.68;;;;;;;14.71;53.58;97833.06;1775345;79;21034;-60
2021/11/27 09:50:08;;;;;;;9.70;8.70;;;;;;;14.74;53.54;97831.78;1717868;81;21038;-60
2021/11/27 09:52:35;;;;;;;9.45;8.45;;;;;;;14.78;53.54;97826.23;1746818;79;21026;-60
2021/11/27 09:55:03;;;;;;;11.03;8.65;;;;;;;14.84;53.52;97828.47;1726449;80;21057;-60
2021/11/27 09:57:29;;;;;;;10.75;9.65;;;;;;;14.89;53.44;97830.70;1754000;79;21157;-59
2021/11/27 09:59:56;;;;;;;11.15;9.98;;;;;;;14.96;53.36;97830.53;1734559;79;21061;-59
2021/11/27 10:02:23;;;;;;;9.90;8.90;;;;;;;15.01;53.28;97825.27;1743916;81;21021;-60
2021/11/27 10:04:54;;;;;;;9.78;8.78;;;;;;;15.08;53.23;97815.73;1723340;81;21088;-61
2021/11/27 10:07:22;;;;;;;9.60;8.35;;;;;;;15.14;53.13;97803.55;1733882;80;21085;-61
2021/11/27 10:09:51;;;;;;;8.53;7.72;;;;;;;15.23;53.03;97805.80;1728095;81;21793;-60
2021/11/27 10:12:20;;;;;;;8.75;7.95;;;;;;;15.29;52.93;97809.62;1734013;79;20999;-60
2021/11/27 10:14:46;;;;;;;9.25;8.35;;;;;;;15.36;52.82;97812.68;1739191;80;21586;-60
2021/11/27 10:17:20;;;;;;;9.80;8.78;;;;;;;15.42;52.70;97811.69;1737687;79;21553;-60
2021/11/27 10:19:51;;;;;;;8.83;7.92;;;;;;;15.50;52.71;97809.92;1750337;79;21042;-60
2021/11/27 10:22:39;;;;;;;9.13;7.70;;;;;;;15.59;52.73;97820.49;1764743;79;21121;-60
2021/11/27 10:25:31;;;;;;;8.28;7.47;;;;;;;15.66;52.81;97811.73;1743802;80;21030;-60
2021/11/27 10:28:18;;;;;;;7.50;6.65;;;;;;;15.75;52.70;97814.03;1742818;80;21025;-60
2021/11/27 10:30:57;;;;;;;8.40;7.60;;;;;;;15.83;52.55;97813.05;1728317;80;21683;-59
2021/11/27 10:33:21;;;;;;;9.25;8.13;;;;;;;15.90;52.51;97809.66;1757103;79;21551;-60
2021/11/27 10:35:53;;;;;;;7.97;7.15;;;;;;;16.01;52.57;97807.09;1741921;81;21259;-60
2021/11/27 10:38:20;;;;;;;8.83;7.80;;;;;;;16.11;52.60;97806.69;1755025;79;21557;-61
2021/11/27 10:40:58;;;;;;;7.97;7.17;;;;;;;16.23;52.61;97810.56;1749554;79;21050;-59
2021/11/27 10:43:25;;;;;;;8.53;7.72;;;;;;;16.36;52.59;97804.52;1759504;79;21126;-59
2021/11/27 10:45:51;;;;;;;7.90;7.17;;;;;;;16.49;52.50;97805.45;1748486;79;21582;-60
2021/11/27 10:48:22;;;;;;;8.30;7.20;;;;;;;16.59;52.44;97807.41;1758866;79;22442;-60
2021/11/27 10:50:53;;;;;;;7.33;6.62;;;;;;;16.68;52.30;97805.36;1755419;79;21655;-60
2021/11/27 10:53:32;;;;;;;7.62;6.92;;;;;;;16.76;52.14;97801.41;1749217;80;21070;-60
2021/11/27 10:56:07;;;;;;;7.60;6.87;;;;;;;16.84;52.01;97814.91;1755673;79;21019;-59
2021/11/27 10:58:59;;;;;;;6.83;6.22;;;;;;;16.89;51.89;97810.93;1753895;80;21027;-59
2021/11/27 11:01:26;;;;;;;7.62;6.90;;;;;;;16.94;51.75;97822.22;1733318;79;21162;-59
2021/11/27 11:03:53;;;;;;;6.87;6.17;;;;;;;16.98;51.67;97826.00;1722420;81;21029;-59
2021/11/27 11:06:24;;;;;;;6.40;5.80;;;;;;;17.02;51.62;97832.50;1749419;79;21045;-59
2021/11/27 11:08:52;;;;;;;7.12;6.42;;;;;;;17.07;51.56;97834.69;1745646;79;21097;-59
2021/11/27 11:11:25;;;;;;;6.85;6.15;;;;;;;17.13;51.47;97837.39;1763958;79;21358;-60
2021/11/27 11:13:57;;;;;;;6.50;5.90;;;;;;;17.17;51.45;97846.03;1778631;79;21111;-59
2021/11/27 11:16:27;;;;;;;5.97;5.30;;;;;;;17.22;51.39;97843.91;1759858;80;21088;-59
2021/11/27 11:19:15;;;;;;;6.75;6.12;;;;;;;17.24;51.27;97834.52;1750235;81;21052;-60
2021/11/27 11:22:12;;;;;;;6.00;5.30;;;;;;;17.26;51.20;97854.39;1797134;77;21104;-60
2021/11/27 11:24:41;;;;;;;6.30;5.70;;;;;;;17.27;51.09;97856.03;1812305;78;21018;-59
2021/11/27 11:27:09;;;;;;;6.58;5.97;;;;;;;17.24;50.99;97851.97;1804335;78;23320;-61
2021/11/27 11:29:48;;;;;;;5.87;5.25;;;;;;;17.24;50.98;97853.84;1811622;78;20994;-60
2021/11/27 11:32:22;;;;;;;6.37;5.78;;;;;;;17.25;50.96;97870.23;1806977;78;21053;-59
2021/11/27 11:34:52;;;;;;;5.72;5.05;;;;;;;17.24;50.96;97868.06;1810041;78;21006;-60
2021/11/27 11:37:20;;;;;;;6.10;5.50;;;;;;;17.23;50.93;97876.36;1806578;78;21032;-61
2021/11/27 11:39:47;;;;;;;5.97;5.37;;;;;;;17.22;50.94;97884.16;1791397;78;21138;-59
2021/11/27 11:42:14;;;;;;;5.67;5.17;;;;;;;17.20;50.90;97880.92;1812059;78;22162;-60
2021/11/27 11:44:46;;;;;;;6.03;5.42;;;;;;;17.18;50.83;97879.03;1821525;77;20998;-60